createdAt,value
2022-08-29T00:02:35.495Z,5.07
2022-08-29T00:05:25.242Z,4.50
2022-08-29T00:08:11.718Z,4.78
2022-08-29T00:11:02.482Z,4.45
2022-08-29T00:13:48.994Z,4.40
2022-08-29T00:16:35.446Z,4.35
2022-08-29T00:19:21.838Z,4.63
2022-08-29T00:22:07.955Z,4.47
2022-08-29T00:24:53.993Z,4.18
2022-08-29T00:27:40.599Z,5.13
2022-08-29T00:30:31.338Z,4.53
2022-08-29T00:33:17.930Z,4.68
2022-08-29T00:36:04.480Z,5.10
2022-08-29T00:38:50.474Z,4.30
2022-08-29T00:41:37.771Z,4.63
2022-08-29T00:44:24.078Z,4.68
2022-08-29T00:47:12.292Z,4.53
2022-08-29T00:49:58.680Z,4.20
2022-08-29T00:52:47.073Z,4.68
2022-08-29T00:55:34.883Z,5.43
2022-08-29T00:58:41.111Z,4.68
2022-08-29T01:01:30.594Z,4.32
2022-08-29T01:04:24.038Z,4.90
2022-08-29T01:07:14.634Z,4.75
2022-08-29T01:10:13.338Z,4.97
2022-08-29T01:13:07.688Z,4.80
2022-08-29T01:15:59.525Z,4.95
2022-08-29T01:18:47.961Z,4.47
2022-08-29T01:21:36.867Z,5.03
2022-08-29T01:24:27.085Z,4.47
2022-08-29T01:27:14.364Z,5.03
2022-08-29T01:30:00.186Z,4.97
2022-08-29T01:32:46.275Z,4.32
2022-08-29T01:35:33.694Z,4.60
2022-08-29T01:38:36.678Z,5.05
2022-08-29T01:41:22.850Z,4.80
2022-08-29T01:44:12.109Z,4.78
2022-08-29T01:47:02.707Z,4.50
2022-08-29T01:49:49.304Z,4.60
2022-08-29T01:52:36.134Z,4.70
2022-08-29T01:55:22.189Z,4.10
2022-08-29T01:58:09.171Z,4.90
2022-08-29T02:00:58.553Z,4.55
2022-08-29T02:03:45.486Z,4.50
2022-08-29T02:06:31.405Z,4.65
2022-08-29T02:09:20.770Z,4.70
2022-08-29T02:12:07.276Z,5.20
2022-08-29T02:14:53.148Z,4.60
2022-08-29T02:17:39.286Z,4.25
2022-08-29T02:20:25.109Z,4.10
2022-08-29T02:23:29.833Z,4.90
2022-08-29T02:26:17.328Z,4.50
2022-08-29T02:29:03.666Z,4.43
2022-08-29T02:31:49.724Z,4.38
2022-08-29T02:34:36.703Z,4.90
2022-08-29T02:37:22.534Z,4.05
2022-08-29T02:40:09.143Z,4.45
2022-08-29T02:42:55.257Z,4.28
2022-08-29T02:45:41.914Z,4.45
2022-08-29T02:48:28.114Z,4.03
2022-08-29T02:51:23.246Z,4.30
2022-08-29T02:54:09.774Z,4.40
2022-08-29T02:56:55.604Z,4.88
2022-08-29T02:59:41.570Z,4.32
2022-08-29T03:02:27.936Z,4.40
2022-08-29T03:05:15.451Z,4.38
2022-08-29T03:08:03.112Z,3.83
2022-08-29T03:10:49.341Z,4.28
2022-08-29T03:13:35.737Z,4.95
2022-08-29T03:16:21.600Z,4.88
2022-08-29T03:19:07.478Z,4.75
2022-08-29T03:21:53.250Z,4.70
2022-08-29T03:24:39.374Z,4.90
2022-08-29T03:27:25.493Z,5.00
2022-08-29T03:30:14.078Z,4.68
2022-08-29T03:33:00.104Z,5.43
2022-08-29T03:35:45.975Z,4.97
2022-08-29T03:38:31.722Z,5.97
2022-08-29T03:41:22.673Z,5.20
2022-08-29T03:44:08.883Z,5.78
2022-08-29T03:46:55.053Z,4.72
2022-08-29T03:49:40.961Z,5.22
2022-08-29T03:52:26.955Z,4.70
2022-08-29T03:55:14.325Z,5.18
2022-08-29T03:58:00.229Z,4.95
2022-08-29T04:00:47.047Z,4.78
2022-08-29T04:03:33.237Z,5.63
2022-08-29T04:06:19.851Z,7.70
2022-08-29T04:09:05.723Z,5.68
2022-08-29T04:11:52.681Z,7.18
2022-08-29T04:14:39.661Z,7.05
2022-08-29T04:17:25.828Z,9.93
2022-08-29T04:20:13.071Z,11.10
2022-08-29T04:22:59.842Z,9.10
2022-08-29T04:25:45.723Z,7.75
2022-08-29T04:28:31.808Z,6.38
2022-08-29T04:31:20.380Z,6.30
2022-08-29T04:34:07.315Z,5.65
2022-08-29T04:36:53.502Z,5.50
2022-08-29T04:39:41.813Z,4.95
2022-08-29T04:42:28.082Z,5.53
2022-08-29T04:45:18.126Z,5.32
2022-08-29T04:48:04.337Z,5.32
2022-08-29T04:50:56.464Z,5.40
2022-08-29T04:53:43.150Z,5.95
2022-08-29T04:56:28.820Z,6.43
2022-08-29T04:59:16.646Z,6.30
2022-08-29T05:02:02.443Z,5.68
2022-08-29T05:04:52.546Z,5.15
2022-08-29T05:07:38.536Z,5.47
2022-08-29T05:10:24.626Z,6.00
2022-08-29T05:13:10.645Z,5.78
2022-08-29T05:15:56.512Z,5.72
2022-08-29T05:18:44.430Z,5.65
2022-08-29T05:21:35.497Z,5.43
2022-08-29T05:24:22.364Z,5.70
2022-08-29T05:27:10.288Z,6.20
2022-08-29T05:29:56.324Z,6.38
2022-08-29T05:32:42.877Z,5.35
2022-08-29T05:35:28.768Z,5.70
2022-08-29T05:38:14.947Z,5.30
2022-08-29T05:41:01.802Z,6.47
2022-08-29T05:43:47.674Z,5.10
2022-08-29T05:46:33.756Z,5.72
2022-08-29T05:49:20.152Z,7.72
2022-08-29T05:52:06.783Z,8.55
2022-08-29T05:54:52.741Z,6.85
2022-08-29T05:57:38.698Z,5.93
2022-08-29T06:00:25.097Z,6.45
2022-08-29T06:03:11.967Z,5.63
2022-08-29T06:05:58.134Z,6.13
2022-08-29T06:08:44.171Z,5.40
2022-08-29T06:11:32.479Z,5.22
2022-08-29T06:14:18.374Z,5.60
2022-08-29T06:17:05.640Z,6.07
2022-08-29T06:19:54.733Z,5.40
2022-08-29T06:22:40.883Z,6.07
2022-08-29T06:25:39.636Z,7.53
2022-08-29T06:28:31.344Z,6.80
2022-08-29T06:31:22.929Z,6.95
2022-08-29T06:34:09.858Z,6.32
2022-08-29T06:36:55.479Z,6.47
2022-08-29T06:39:41.320Z,6.93
2022-08-29T06:42:28.658Z,7.13
2022-08-29T06:45:14.617Z,6.53
2022-08-29T06:48:06.914Z,8.13
2022-08-29T06:51:08.671Z,7.20
2022-08-29T06:53:54.556Z,6.80
2022-08-29T06:56:42.376Z,7.00
2022-08-29T06:59:28.348Z,6.65
2022-08-29T07:02:14.439Z,6.95
2022-08-29T07:05:00.408Z,7.18
2022-08-29T07:07:46.450Z,8.25
2022-08-29T07:10:32.547Z,8.55
2022-08-29T07:13:18.651Z,9.52
2022-08-29T07:16:08.558Z,14.75
2022-08-29T07:18:54.581Z,12.75
2022-08-29T07:21:40.525Z,7.40
2022-08-29T07:24:26.772Z,7.45
2022-08-29T07:27:14.048Z,7.18
2022-08-29T07:30:02.599Z,18.95
2022-08-29T07:32:48.928Z,9.98
2022-08-29T07:35:34.923Z,8.77
2022-08-29T07:38:21.561Z,7.78
2022-08-29T07:41:09.681Z,7.60
2022-08-29T07:43:55.629Z,7.07
2022-08-29T07:46:42.299Z,7.53
2022-08-29T07:49:40.593Z,6.78
2022-08-29T07:52:26.888Z,6.43
2022-08-29T07:55:12.870Z,6.85
2022-08-29T07:57:59.040Z,6.50
2022-08-29T08:00:45.388Z,6.40
2022-08-29T08:03:32.963Z,6.05
2022-08-29T08:06:23.579Z,5.97
2022-08-29T08:09:10.252Z,5.68
2022-08-29T08:11:57.708Z,6.20
2022-08-29T08:14:43.713Z,6.55
2022-08-29T08:17:29.952Z,6.65
2022-08-29T08:20:15.804Z,6.13
2022-08-29T08:23:02.544Z,6.18
2022-08-29T08:25:48.392Z,5.93
2022-08-29T08:28:34.349Z,5.90
2022-08-29T08:31:20.665Z,6.97
2022-08-29T08:34:07.414Z,8.30
